This is the latest recevied weather packets stored in our database for station/object KI5GCD-13. If no packets are shown the sender has not sent any weather packets the latest 10 day(s).
| Time | Temp. | Humidity | Pressure | Rain* | Wind** | Luminosity | Snow |
|---|---|---|---|---|---|---|---|
| 1778024987 | 9.44° C | 89% | 1006 hPa | 0 mm | 4.02 m/s, 39° | - | - |
| 1778024687 | 9.44° C | 89% | 1005.7 hPa | 0 mm | 1.79 m/s, 2° | - | - |
| 1778024387 | 9.44° C | 89% | 1005.8 hPa | 0 mm | 2.24 m/s, 54° | - | - |
| 1778024087 | 9.44° C | 89% | 1005.5 hPa | 0 mm | 2.68 m/s, 37° | - | - |
| 1778023787 | 9.44° C | 89% | 1005.5 hPa | 0 mm | 3.13 m/s, 89° | - | - |
| 1778023487 | 9.44° C | 90% | 1005.7 hPa | 0 mm | 1.79 m/s, 80° | - | - |
| 1778023187 | 9.44° C | 89% | 1005.3 hPa | 0 mm | 2.68 m/s, 84° | - | - |
| 1778022887 | 9.44° C | 90% | 1005.1 hPa | 0 mm | 1.34 m/s, 72° | - | - |
| 1778022587 | 9.44° C | 90% | 1005.3 hPa | 0 mm | 0.89 m/s, 39° | - | - |
| 1778022288 | 10° C | 90% | 1005.2 hPa | 0 mm | 1.34 m/s, 61° | - | - |
| 1778021987 | 10° C | 90% | 1005.3 hPa | 0 mm | 1.34 m/s, 28° | - | - |
| 1778021687 | 10° C | 90% | 1005.2 hPa | 0 mm | 0.45 m/s, 253° | - | - |
| 1778021387 | 10° C | 91% | 1005.2 hPa | 0 mm | 0.89 m/s, 324° | - | - |
| 1778021087 | 10° C | 90% | 1005.5 hPa | 0 mm | 2.24 m/s, 15° | - | - |
| 1778020787 | 10° C | 90% | 1005.3 hPa | 0 mm | 0.89 m/s, 292° | - | - |
| 1778020487 | 10° C | 90% | 1005.2 hPa | 0 mm | 1.34 m/s, 306° | - | - |
| 1778020187 | 10° C | 90% | 1005.1 hPa | 0 mm | 3.58 m/s, 27° | - | - |
| 1778019887 | 10° C | 91% | 1004.9 hPa | 0 mm | 2.24 m/s, 141° | - | - |
| 1778019587 | 10° C | 90% | 1004.8 hPa | 0 mm | 0.45 m/s, 249° | - | - |
| 1778019287 | 10° C | 90% | 1004.6 hPa | 0 mm | 2.24 m/s, 330° | - | - |
| 1778018987 | 10° C | 90% | 1004.7 hPa | 0 mm | 1.34 m/s, 130° | - | - |
| 1778018687 | 10° C | 91% | 1004.8 hPa | 0 mm | 1.34 m/s, 275° | - | - |
| 1778018387 | 10° C | 91% | 1004.7 hPa | 0 mm | 2.68 m/s, 6° | - | - |
| 1778018087 | 10° C | 92% | 1004.8 hPa | 0 mm | 0.45 m/s, 205° | - | - |
| 1778017787 | 10° C | 93% | 1004.9 hPa | 0 mm | 1.79 m/s, 4° | - | - |
* Rain latest hour (hover to see other rain measurements)
** Current wind speed in m/s (hover to see current wind gust speed)